createdAt,value
2017-10-29T00:00:51.728Z,1005.21
2017-10-29T00:01:51.763Z,1005.12
2017-10-29T00:02:51.767Z,1004.99
2017-10-29T00:03:51.792Z,1005.03
2017-10-29T00:04:51.839Z,1004.98
2017-10-29T00:05:52.225Z,1004.94
2017-10-29T00:06:51.913Z,1004.92
2017-10-29T00:07:51.934Z,1004.89
2017-10-29T00:08:51.966Z,1004.88
2017-10-29T00:09:51.988Z,1004.86
2017-10-29T00:10:52.033Z,1004.88
2017-10-29T00:11:52.168Z,1004.81
2017-10-29T00:12:52.332Z,1004.75
2017-10-29T00:13:52.128Z,1004.74
2017-10-29T00:14:52.123Z,1004.69
2017-10-29T00:15:52.192Z,1004.67
2017-10-29T00:16:52.183Z,1004.62
2017-10-29T00:17:52.274Z,1004.59
2017-10-29T00:18:52.270Z,1004.60
2017-10-29T00:19:52.626Z,1004.55
2017-10-29T00:20:52.323Z,1004.58
2017-10-29T00:21:52.338Z,1004.59
2017-10-29T00:22:52.463Z,1004.55
2017-10-29T00:23:52.406Z,1004.57
2017-10-29T00:24:52.437Z,1004.52
2017-10-29T00:25:52.489Z,1004.50
2017-10-29T00:26:52.821Z,1004.50
2017-10-29T00:27:52.585Z,1004.47
2017-10-29T00:28:52.566Z,1004.53
2017-10-29T00:29:52.609Z,1004.51
2017-10-29T00:30:52.613Z,1004.47
2017-10-29T00:31:52.649Z,1004.49
2017-10-29T00:32:52.700Z,1004.47
2017-10-29T00:33:53.031Z,1004.47
2017-10-29T00:34:52.738Z,1004.58
2017-10-29T00:35:52.762Z,1004.44
2017-10-29T00:36:52.815Z,1004.56
2017-10-29T00:37:52.890Z,1004.43
2017-10-29T00:38:52.893Z,1004.37
2017-10-29T00:39:52.891Z,1004.36
2017-10-29T00:40:53.267Z,1004.40
2017-10-29T00:41:52.956Z,1004.33
2017-10-29T00:42:52.990Z,1004.31
2017-10-29T00:43:53.184Z,1004.38
2017-10-29T00:44:53.035Z,1004.40
2017-10-29T00:45:53.116Z,1004.35
2017-10-29T00:46:53.097Z,1004.37
2017-10-29T00:47:53.427Z,1004.34
2017-10-29T00:48:53.185Z,1004.39
2017-10-29T00:49:53.192Z,1004.36
2017-10-29T00:50:53.238Z,1004.32
2017-10-29T00:51:53.260Z,1004.33
2017-10-29T00:52:53.297Z,1004.31
2017-10-29T00:53:53.416Z,1004.25
2017-10-29T00:54:53.646Z,1004.31
2017-10-29T00:55:53.368Z,1004.27
2017-10-29T00:56:53.416Z,1004.22
2017-10-29T00:57:53.436Z,1004.33
2017-10-29T00:58:53.508Z,1004.39
2017-10-29T00:59:53.511Z,1004.31
2017-10-29T01:00:53.546Z,1004.23
2017-10-29T01:01:53.880Z,1004.20
2017-10-29T01:02:53.583Z,1004.16
2017-10-29T01:03:53.615Z,1004.14
2017-10-29T01:04:53.663Z,1004.07
2017-10-29T01:05:53.712Z,1004.17
2017-10-29T01:06:53.746Z,1004.16
2017-10-29T01:07:53.732Z,1004.18
2017-10-29T01:08:54.076Z,1004.17
2017-10-29T01:09:53.813Z,1004.09
2017-10-29T01:10:53.825Z,1004.10
2017-10-29T01:11:53.855Z,1004.15
2017-10-29T01:12:53.885Z,1004.12
2017-10-29T01:13:53.921Z,1004.08
2017-10-29T01:14:53.962Z,1004.09
2017-10-29T01:15:54.299Z,1004.04
2017-10-29T01:16:54.012Z,1003.91
2017-10-29T01:17:54.053Z,1004.05
2017-10-29T01:18:54.085Z,1003.99
2017-10-29T01:19:54.123Z,1003.93
2017-10-29T01:20:54.131Z,1003.95
2017-10-29T01:21:54.157Z,1004.04
2017-10-29T01:22:54.490Z,1003.93
2017-10-29T01:23:54.240Z,1003.88
2017-10-29T01:24:54.269Z,1003.85
2017-10-29T01:25:54.306Z,1003.97
2017-10-29T01:26:54.307Z,1003.93
2017-10-29T01:27:54.345Z,1003.79
2017-10-29T01:28:54.680Z,1003.90
2017-10-29T01:29:54.400Z,1003.83
2017-10-29T01:30:54.441Z,1003.75
2017-10-29T01:31:54.476Z,1003.77
2017-10-29T01:32:54.494Z,1003.74
2017-10-29T01:33:54.548Z,1003.75
2017-10-29T01:34:54.869Z,1003.75
2017-10-29T01:35:54.634Z,1003.70
2017-10-29T01:36:54.652Z,1003.73
2017-10-29T01:37:54.660Z,1003.68
2017-10-29T01:38:54.748Z,1003.74
2017-10-29T01:39:54.754Z,1003.69
2017-10-29T01:40:54.992Z,1003.68
2017-10-29T01:41:54.868Z,1003.63
2017-10-29T01:42:54.820Z,1003.60
2017-10-29T01:43:54.831Z,1003.61
2017-10-29T01:44:54.856Z,1003.63
2017-10-29T01:45:54.903Z,1003.55
2017-10-29T01:46:55.186Z,1003.63
2017-10-29T01:47:54.966Z,1003.55
2017-10-29T01:48:54.998Z,1003.48
2017-10-29T01:49:55.007Z,1003.56
2017-10-29T01:50:55.061Z,1003.51
2017-10-29T01:51:55.066Z,1003.48
2017-10-29T01:52:55.802Z,1003.46
2017-10-29T01:53:55.153Z,1003.45
2017-10-29T01:54:55.186Z,1003.48
2017-10-29T01:55:55.190Z,1003.49
2017-10-29T01:56:55.238Z,1003.55
2017-10-29T01:57:55.250Z,1003.46
2017-10-29T01:58:55.604Z,1003.40
2017-10-29T01:59:55.332Z,1003.47
2017-10-29T02:00:55.358Z,1003.39
2017-10-29T02:01:55.373Z,1003.31
2017-10-29T02:02:55.415Z,1003.35
2017-10-29T02:03:55.446Z,1003.28
2017-10-29T02:04:55.808Z,1003.33
2017-10-29T02:05:55.505Z,1003.19
2017-10-29T02:06:55.528Z,1003.20
2017-10-29T02:07:55.566Z,1003.13
2017-10-29T02:08:55.737Z,1003.11
2017-10-29T02:09:55.617Z,1003.11
2017-10-29T02:10:55.913Z,1003.17
2017-10-29T02:11:55.697Z,1003.12
2017-10-29T02:12:55.723Z,1003.19
2017-10-29T02:13:55.738Z,1003.15
2017-10-29T02:14:55.782Z,1003.16
2017-10-29T02:15:55.821Z,1003.06
2017-10-29T02:16:56.128Z,1003.14
2017-10-29T02:17:55.885Z,1003.07
2017-10-29T02:18:55.948Z,1003.08
2017-10-29T02:19:55.941Z,1003.02
2017-10-29T02:20:55.965Z,1003.05
2017-10-29T02:21:56.015Z,1002.85
2017-10-29T02:22:56.289Z,1002.91
2017-10-29T02:23:56.048Z,1002.80
2017-10-29T02:24:56.171Z,1002.92
2017-10-29T02:25:56.114Z,1002.80
2017-10-29T02:26:56.129Z,1002.70
2017-10-29T02:27:56.170Z,1002.72
2017-10-29T02:28:56.461Z,1002.68
2017-10-29T02:29:56.222Z,1002.63
2017-10-29T02:30:56.461Z,1002.61
2017-10-29T02:31:56.281Z,1002.54
2017-10-29T02:32:56.338Z,1002.64
2017-10-29T02:33:56.344Z,1002.60
2017-10-29T02:34:56.623Z,1002.69
2017-10-29T02:35:56.424Z,1002.66
2017-10-29T02:36:56.557Z,1002.60
2017-10-29T02:37:56.489Z,1002.56
2017-10-29T02:38:56.515Z,1002.60
2017-10-29T02:39:56.531Z,1002.65
2017-10-29T02:40:56.556Z,1002.71
2017-10-29T02:41:56.909Z,1002.67
2017-10-29T02:42:56.635Z,1002.56
2017-10-29T02:43:56.651Z,1002.59
2017-10-29T02:44:56.684Z,1002.53
2017-10-29T02:45:56.720Z,1002.44
2017-10-29T02:46:56.739Z,1002.53
2017-10-29T02:47:56.792Z,1002.50
2017-10-29T02:48:57.104Z,1002.54
2017-10-29T02:49:56.849Z,1002.48
2017-10-29T02:50:56.864Z,1002.43
2017-10-29T02:51:56.892Z,1002.35
2017-10-29T02:52:56.937Z,1002.52
2017-10-29T02:53:56.957Z,1002.38
2017-10-29T02:54:57.330Z,1002.46
2017-10-29T02:55:57.260Z,1002.46
2017-10-29T02:56:57.081Z,1002.41
2017-10-29T02:57:57.071Z,1002.38
2017-10-29T02:58:57.112Z,1002.52
2017-10-29T02:59:57.140Z,1002.59
2017-10-29T03:00:57.255Z,1002.51
2017-10-29T03:01:57.208Z,1002.53
2017-10-29T03:02:57.473Z,1002.57
2017-10-29T03:03:57.272Z,1002.56
2017-10-29T03:04:57.301Z,1002.50
2017-10-29T03:05:57.333Z,1002.48
2017-10-29T03:06:57.601Z,1002.59
2017-10-29T03:07:57.402Z,1002.60
2017-10-29T03:08:57.423Z,1002.69
2017-10-29T03:09:57.787Z,1002.54
2017-10-29T03:10:57.469Z,1002.52
2017-10-29T03:11:57.537Z,1002.54
2017-10-29T03:12:57.642Z,1002.54
2017-10-29T03:13:57.569Z,1002.63
2017-10-29T03:14:57.689Z,1002.64
2017-10-29T03:15:57.628Z,1002.71
2017-10-29T03:16:57.906Z,1002.71
2017-10-29T03:17:57.714Z,1002.58
2017-10-29T03:18:57.721Z,1002.49
2017-10-29T03:19:57.808Z,1002.62
2017-10-29T03:20:57.782Z,1002.61
2017-10-29T03:21:57.843Z,1002.60
2017-10-29T03:22:57.847Z,1002.64
2017-10-29T03:23:58.130Z,1002.58
2017-10-29T03:24:57.917Z,1002.62
2017-10-29T03:25:57.939Z,1002.71
2017-10-29T03:26:57.956Z,1002.65
2017-10-29T03:27:57.988Z,1002.63
2017-10-29T03:28:58.037Z,1002.62
2017-10-29T03:29:58.095Z,1002.83
2017-10-29T03:30:58.351Z,1002.76
2017-10-29T03:31:58.147Z,1002.76
2017-10-29T03:32:58.138Z,1002.56
2017-10-29T03:33:58.167Z,1002.70
2017-10-29T03:34:58.195Z,1002.69
2017-10-29T03:35:58.415Z,1002.78
2017-10-29T03:36:58.275Z,1002.80
2017-10-29T03:37:58.606Z,1002.78
2017-10-29T03:38:58.363Z,1002.85
2017-10-29T03:39:58.366Z,1002.98
2017-10-29T03:40:58.381Z,1002.90
2017-10-29T03:41:58.436Z,1002.96
2017-10-29T03:42:58.448Z,1003.06
2017-10-29T03:43:58.488Z,1003.01
2017-10-29T03:44:58.768Z,1003.09
2017-10-29T03:45:58.541Z,1003.07
2017-10-29T03:46:58.564Z,1003.10
2017-10-29T03:47:58.679Z,1002.94
2017-10-29T03:48:58.648Z,1003.06
2017-10-29T03:49:58.736Z,1003.09
2017-10-29T03:50:58.721Z,1003.09
2017-10-29T03:51:58.965Z,1003.14
2017-10-29T03:52:58.817Z,1003.23
2017-10-29T03:53:58.780Z,1003.19
2017-10-29T03:54:58.824Z,1003.19
2017-10-29T03:55:58.849Z,1003.07
2017-10-29T03:56:58.891Z,1003.09
2017-10-29T03:57:58.917Z,1003.02
2017-10-29T03:58:59.226Z,1003.12
2017-10-29T03:59:58.973Z,1002.97
2017-10-29T04:00:58.991Z,1003.04
2017-10-29T04:01:59.033Z,1003.02
2017-10-29T04:02:59.065Z,1003.01
2017-10-29T04:03:59.243Z,1003.08
2017-10-29T04:04:59.409Z,1003.07
2017-10-29T04:05:59.143Z,1003.16
2017-10-29T04:06:59.199Z,1003.11
2017-10-29T04:07:59.227Z,1003.02
2017-10-29T04:08:59.248Z,1003.11
2017-10-29T04:09:59.271Z,1003.07
2017-10-29T04:10:59.549Z,1003.13
2017-10-29T04:11:59.339Z,1003.14
2017-10-29T04:12:59.365Z,1003.13
2017-10-29T04:13:59.485Z,1003.20
2017-10-29T04:14:59.413Z,1003.29
2017-10-29T04:15:59.442Z,1003.28
2017-10-29T04:16:59.738Z,1003.28
2017-10-29T04:17:59.527Z,1003.16
2017-10-29T04:18:59.535Z,1003.19
2017-10-29T04:19:59.791Z,1003.15
2017-10-29T04:20:59.594Z,1003.03
2017-10-29T04:21:59.641Z,1003.05
2017-10-29T04:22:59.929Z,1003.07
2017-10-29T04:23:59.684Z,1003.06
2017-10-29T04:24:59.736Z,1003.11
2017-10-29T04:25:59.767Z,1003.06
2017-10-29T04:26:59.778Z,1003.03
2017-10-29T04:27:59.812Z,1003.07
2017-10-29T04:29:00.136Z,1003.10
2017-10-29T04:29:59.901Z,1003.07
2017-10-29T04:31:00.101Z,1003.09
2017-10-29T04:31:59.947Z,1003.11
2017-10-29T04:32:59.958Z,1003.21
2017-10-29T04:33:59.992Z,1003.00
2017-10-29T04:35:00.347Z,1003.10
2017-10-29T04:36:00.049Z,1003.12
2017-10-29T04:37:00.131Z,1003.17
2017-10-29T04:38:00.143Z,1003.26
2017-10-29T04:39:00.145Z,1003.12
2017-10-29T04:40:00.188Z,1003.22
2017-10-29T04:41:00.472Z,1003.28
2017-10-29T04:42:00.262Z,1003.48
2017-10-29T04:43:00.387Z,1003.65
2017-10-29T04:44:00.312Z,1003.43
2017-10-29T04:45:00.340Z,1003.24
2017-10-29T04:46:00.354Z,1003.17
2017-10-29T04:47:00.715Z,1003.28
2017-10-29T04:48:00.431Z,1003.38
2017-10-29T04:49:00.446Z,1003.43
2017-10-29T04:50:00.500Z,1003.31
2017-10-29T04:51:00.508Z,1003.35
2017-10-29T04:52:00.537Z,1003.12
2017-10-29T04:53:00.949Z,1003.33
2017-10-29T04:54:00.599Z,1003.41
2017-10-29T04:55:00.629Z,1003.48
2017-10-29T04:56:00.660Z,1003.46
2017-10-29T04:57:00.686Z,1003.48
2017-10-29T04:58:00.786Z,1003.50
2017-10-29T04:59:01.064Z,1003.47
2017-10-29T05:00:00.790Z,1003.47
2017-10-29T05:01:00.844Z,1003.62
2017-10-29T05:02:00.839Z,1003.54
2017-10-29T05:03:00.870Z,1003.60
2017-10-29T05:04:00.922Z,1003.62
2017-10-29T05:05:01.236Z,1003.61
2017-10-29T05:06:01.029Z,1003.69
2017-10-29T05:07:01.014Z,1003.69
2017-10-29T05:08:01.018Z,1003.75
2017-10-29T05:09:01.059Z,1003.75
2017-10-29T05:10:01.100Z,1004.04
2017-10-29T05:11:01.423Z,1003.94
2017-10-29T05:12:01.159Z,1003.97
2017-10-29T05:13:01.216Z,1004.07
2017-10-29T05:14:01.202Z,1004.05
2017-10-29T05:15:01.235Z,1004.14
2017-10-29T05:16:01.266Z,1004.05
2017-10-29T05:17:01.298Z,1004.12
2017-10-29T05:18:01.575Z,1004.17
2017-10-29T05:19:01.364Z,1004.17
2017-10-29T05:20:01.403Z,1004.14
2017-10-29T05:21:01.484Z,1004.28
2017-10-29T05:22:01.448Z,1004.16
2017-10-29T05:23:01.488Z,1004.31
2017-10-29T05:24:01.514Z,1004.31
2017-10-29T05:25:01.789Z,1004.24
2017-10-29T05:26:01.583Z,1004.22
2017-10-29T05:27:01.628Z,1004.29
2017-10-29T05:28:01.630Z,1004.24
2017-10-29T05:29:01.675Z,1004.33
2017-10-29T05:30:01.708Z,1004.36
2017-10-29T05:31:01.722Z,1004.46
2017-10-29T05:32:02.076Z,1004.39
2017-10-29T05:33:01.795Z,1004.39
2017-10-29T05:34:01.818Z,1004.43
2017-10-29T05:35:01.846Z,1004.46
2017-10-29T05:36:01.873Z,1004.38
2017-10-29T05:37:01.931Z,1004.50
2017-10-29T05:38:01.955Z,1004.35
2017-10-29T05:39:02.233Z,1004.37
2017-10-29T05:40:01.990Z,1004.42
2017-10-29T05:41:02.030Z,1004.40
2017-10-29T05:42:02.070Z,1004.41
2017-10-29T05:43:02.111Z,1004.40
2017-10-29T05:44:02.138Z,1004.39
2017-10-29T05:45:02.146Z,1004.50
2017-10-29T05:46:02.592Z,1004.40
2017-10-29T05:47:02.227Z,1004.42
2017-10-29T05:48:02.235Z,1004.48
2017-10-29T05:49:02.265Z,1004.35
2017-10-29T05:50:02.299Z,1004.30
2017-10-29T05:51:02.357Z,1004.43
2017-10-29T05:52:02.392Z,1004.47
2017-10-29T05:53:02.689Z,1004.48
2017-10-29T05:54:02.420Z,1004.53
2017-10-29T05:55:02.470Z,1004.51
2017-10-29T05:56:02.513Z,1004.53
2017-10-29T05:57:02.543Z,1004.63
2017-10-29T05:58:02.538Z,1004.59
2017-10-29T05:59:02.573Z,1004.56
2017-10-29T06:00:02.927Z,1004.58
2017-10-29T06:01:02.649Z,1004.60
2017-10-29T06:02:02.657Z,1004.63
2017-10-29T06:03:02.691Z,1004.68
2017-10-29T06:04:02.827Z,1004.67
2017-10-29T06:05:02.768Z,1004.74
2017-10-29T06:06:02.797Z,1004.83
2017-10-29T06:07:03.125Z,1004.83
2017-10-29T06:08:02.857Z,1004.85
2017-10-29T06:09:02.887Z,1004.88
2017-10-29T06:10:02.926Z,1004.93
2017-10-29T06:11:02.932Z,1004.95
2017-10-29T06:12:02.977Z,1004.96
2017-10-29T06:13:03.029Z,1004.95
2017-10-29T06:14:03.273Z,1005.10
2017-10-29T06:15:03.073Z,1005.05
2017-10-29T06:16:03.084Z,1005.05
2017-10-29T06:17:03.123Z,1005.18
2017-10-29T06:18:03.147Z,1005.15
2017-10-29T06:19:03.180Z,1005.20
2017-10-29T06:20:03.229Z,1005.19
2017-10-29T06:21:03.505Z,1005.24
2017-10-29T06:22:03.440Z,1005.33
2017-10-29T06:23:03.293Z,1005.37
2017-10-29T06:24:03.338Z,1005.36
2017-10-29T06:25:03.382Z,1005.33
2017-10-29T06:26:03.402Z,1005.40
2017-10-29T06:27:03.433Z,1005.47
2017-10-29T06:28:03.751Z,1005.45
2017-10-29T06:29:03.532Z,1005.51
2017-10-29T06:30:03.536Z,1005.48
2017-10-29T06:31:03.548Z,1005.68
2017-10-29T06:32:03.597Z,1005.70
2017-10-29T06:33:03.614Z,1005.59
2017-10-29T06:34:03.898Z,1005.67
2017-10-29T06:35:03.714Z,1005.74
2017-10-29T06:36:03.710Z,1005.69
2017-10-29T06:37:03.724Z,1005.76
2017-10-29T06:38:03.782Z,1005.73
2017-10-29T06:39:03.824Z,1005.71
2017-10-29T06:40:04.142Z,1005.78
2017-10-29T06:41:03.847Z,1005.83
2017-10-29T06:42:03.882Z,1005.84
2017-10-29T06:43:03.911Z,1005.85
2017-10-29T06:44:03.953Z,1005.91
2017-10-29T06:45:03.980Z,1005.95
2017-10-29T06:46:04.493Z,1006.02
2017-10-29T06:47:04.024Z,1006.08
2017-10-29T06:48:04.056Z,1006.09
2017-10-29T06:49:04.081Z,1006.20
2017-10-29T06:50:04.126Z,1006.23
2017-10-29T06:51:04.167Z,1006.30
2017-10-29T06:52:04.580Z,1006.22
2017-10-29T06:53:04.200Z,1006.33
2017-10-29T06:54:04.234Z,1006.34
2017-10-29T06:55:04.281Z,1006.25
2017-10-29T06:56:04.294Z,1006.38
2017-10-29T06:57:04.341Z,1006.45
2017-10-29T06:58:04.673Z,1006.42
2017-10-29T06:59:04.384Z,1006.43
2017-10-29T07:00:04.411Z,1006.50
2017-10-29T07:01:04.461Z,1006.55
2017-10-29T07:02:04.502Z,1006.61
2017-10-29T07:03:04.521Z,1006.64
2017-10-29T07:04:04.800Z,1006.70
2017-10-29T07:05:04.565Z,1006.73
2017-10-29T07:06:04.642Z,1006.74
2017-10-29T07:07:04.690Z,1006.76
2017-10-29T07:08:04.699Z,1006.83
2017-10-29T07:09:04.704Z,1006.84
2017-10-29T07:10:04.993Z,1006.88
2017-10-29T07:11:04.819Z,1006.90
2017-10-29T07:12:04.966Z,1006.89
2017-10-29T07:13:04.808Z,1006.99
2017-10-29T07:14:04.845Z,1007.03
2017-10-29T07:15:04.870Z,1006.95
2017-10-29T07:16:05.217Z,1007.02
2017-10-29T07:17:04.970Z,1007.16
2017-10-29T07:18:04.967Z,1007.10
2017-10-29T07:19:05.018Z,1007.15
2017-10-29T07:20:05.034Z,1007.15
2017-10-29T07:21:05.072Z,1007.23
2017-10-29T07:22:05.402Z,1007.32
2017-10-29T07:23:05.124Z,1007.25
2017-10-29T07:24:05.162Z,1007.28
2017-10-29T07:25:05.196Z,1007.34
2017-10-29T07:26:05.229Z,1007.32
2017-10-29T07:27:05.263Z,1007.36
2017-10-29T07:28:05.578Z,1007.46
2017-10-29T07:29:05.308Z,1007.47
2017-10-29T07:30:05.352Z,1007.45
2017-10-29T07:31:05.385Z,1007.51
2017-10-29T07:32:05.389Z,1007.56
2017-10-29T07:33:05.437Z,1007.54
2017-10-29T07:34:05.724Z,1007.58
2017-10-29T07:35:05.509Z,1007.62
2017-10-29T07:36:05.544Z,1007.68
2017-10-29T07:37:05.557Z,1007.63
2017-10-29T07:38:05.588Z,1007.69
2017-10-29T07:39:05.821Z,1007.73
2017-10-29T07:40:05.881Z,1007.70
2017-10-29T07:41:05.679Z,1007.74
2017-10-29T07:42:05.708Z,1007.86
2017-10-29T07:43:05.724Z,1007.79
2017-10-29T07:44:05.752Z,1007.93
2017-10-29T07:45:05.851Z,1007.86
2017-10-29T07:46:06.155Z,1007.90
2017-10-29T07:47:05.901Z,1007.83
2017-10-29T07:48:05.891Z,1007.96
2017-10-29T07:49:05.951Z,1007.86
2017-10-29T07:50:05.975Z,1007.82
2017-10-29T07:51:05.981Z,1007.93
2017-10-29T07:52:06.011Z,1007.81
2017-10-29T07:53:06.284Z,1007.90
2017-10-29T07:54:06.061Z,1007.87
2017-10-29T07:55:06.091Z,1008.00
2017-10-29T07:56:06.135Z,1007.96
2017-10-29T07:57:06.178Z,1008.08
2017-10-29T07:58:06.196Z,1008.07
2017-10-29T07:59:06.231Z,1008.15
2017-10-29T08:00:06.608Z,1008.12
2017-10-29T08:01:06.272Z,1008.19
2017-10-29T08:02:06.308Z,1008.26
2017-10-29T08:03:06.355Z,1008.34
2017-10-29T08:04:06.363Z,1008.26
2017-10-29T08:05:06.400Z,1008.27
2017-10-29T08:06:06.428Z,1008.29
2017-10-29T08:07:06.722Z,1008.36
2017-10-29T08:08:06.488Z,1008.29
2017-10-29T08:09:06.512Z,1008.33
2017-10-29T08:10:06.574Z,1008.35
2017-10-29T08:11:06.646Z,1008.35
2017-10-29T08:12:06.612Z,1008.28
2017-10-29T08:13:06.663Z,1008.29
2017-10-29T08:14:06.996Z,1008.30
2017-10-29T08:15:07.124Z,1008.31
2017-10-29T08:16:06.743Z,1008.26
2017-10-29T08:17:06.773Z,1008.30
2017-10-29T08:18:06.787Z,1008.31
2017-10-29T08:19:06.834Z,1008.41
2017-10-29T08:20:06.866Z,1008.43
2017-10-29T08:21:07.137Z,1008.36
2017-10-29T08:22:06.921Z,1008.39
2017-10-29T08:23:06.963Z,1008.39
2017-10-29T08:24:06.982Z,1008.46
2017-10-29T08:25:07.001Z,1008.55
2017-10-29T08:26:07.051Z,1008.51
2017-10-29T08:27:07.064Z,1008.64
2017-10-29T08:28:07.359Z,1008.54
2017-10-29T08:29:07.721Z,1008.63
2017-10-29T08:30:07.177Z,1008.71
2017-10-29T08:31:07.200Z,1008.61
2017-10-29T08:32:07.365Z,1008.53
2017-10-29T08:33:07.244Z,1008.60
2017-10-29T08:34:07.294Z,1008.66
2017-10-29T08:35:07.557Z,1008.65
2017-10-29T08:36:07.339Z,1008.64
2017-10-29T08:37:07.371Z,1008.60
2017-10-29T08:38:07.443Z,1008.64
2017-10-29T08:39:07.436Z,1008.62
2017-10-29T08:40:07.464Z,1008.67
2017-10-29T08:41:07.657Z,1008.67
2017-10-29T08:42:07.894Z,1008.69
2017-10-29T08:43:07.551Z,1008.69
2017-10-29T08:44:07.580Z,1008.86
2017-10-29T08:45:07.669Z,1008.79
2017-10-29T08:46:07.646Z,1008.79
2017-10-29T08:47:07.759Z,1008.87
2017-10-29T08:48:07.718Z,1008.75
2017-10-29T08:49:08.020Z,1008.85
2017-10-29T08:50:07.786Z,1008.93
2017-10-29T08:51:07.795Z,1008.85
2017-10-29T08:52:07.843Z,1008.88
2017-10-29T08:53:08.034Z,1008.91
2017-10-29T08:54:07.912Z,1008.94
2017-10-29T08:55:07.921Z,1008.92
2017-10-29T08:56:08.246Z,1009.00
2017-10-29T08:57:08.001Z,1008.97
2017-10-29T08:58:08.014Z,1009.02
2017-10-29T08:59:08.109Z,1008.96
2017-10-29T09:00:08.090Z,1008.99
2017-10-29T09:01:08.101Z,1009.09
2017-10-29T09:02:08.132Z,1009.00
2017-10-29T09:03:08.467Z,1009.05
2017-10-29T09:04:08.211Z,1009.08
2017-10-29T09:05:08.276Z,1009.11
2017-10-29T09:06:08.278Z,1009.08
2017-10-29T09:07:08.289Z,1009.13
2017-10-29T09:08:08.335Z,1009.22
2017-10-29T09:09:08.614Z,1009.11
2017-10-29T09:10:08.383Z,1009.21
2017-10-29T09:11:08.427Z,1009.20
2017-10-29T09:12:08.457Z,1009.17
2017-10-29T09:13:08.486Z,1009.22
2017-10-29T09:14:08.501Z,1009.23
2017-10-29T09:15:08.780Z,1009.29
2017-10-29T09:16:08.581Z,1009.29
2017-10-29T09:17:08.657Z,1009.27
2017-10-29T09:18:08.622Z,1009.30
2017-10-29T09:19:08.673Z,1009.29
2017-10-29T09:20:08.712Z,1009.30
2017-10-29T09:21:09.063Z,1009.38
2017-10-29T09:22:08.748Z,1009.35
2017-10-29T09:23:08.784Z,1009.36
2017-10-29T09:24:08.829Z,1009.24
2017-10-29T09:25:08.839Z,1009.34
2017-10-29T09:26:08.865Z,1009.36
2017-10-29T09:27:09.168Z,1009.45
2017-10-29T09:28:08.946Z,1009.41
2017-10-29T09:29:08.981Z,1009.43
2017-10-29T09:30:09.013Z,1009.48
2017-10-29T09:31:09.047Z,1009.60
2017-10-29T09:32:09.076Z,1009.48
2017-10-29T09:33:09.380Z,1009.62
2017-10-29T09:34:09.136Z,1009.65
2017-10-29T09:35:09.160Z,1009.46
2017-10-29T09:36:09.248Z,1009.60
2017-10-29T09:37:09.211Z,1009.48
2017-10-29T09:38:09.256Z,1009.55
2017-10-29T09:39:09.573Z,1009.59
2017-10-29T09:40:09.319Z,1009.58
2017-10-29T09:41:09.344Z,1009.58
2017-10-29T09:42:09.471Z,1009.65
2017-10-29T09:43:09.416Z,1009.62
2017-10-29T09:44:09.416Z,1009.69
2017-10-29T09:45:09.771Z,1009.73
2017-10-29T09:46:09.803Z,1009.73
2017-10-29T09:47:09.527Z,1009.72
2017-10-29T09:48:09.565Z,1009.74
2017-10-29T09:49:09.583Z,1009.81
2017-10-29T09:50:09.629Z,1009.93
2017-10-29T09:51:09.939Z,1009.87
2017-10-29T09:52:09.715Z,1009.81
2017-10-29T09:53:09.723Z,1009.84
2017-10-29T09:54:09.770Z,1009.80
2017-10-29T09:55:09.762Z,1009.87
2017-10-29T09:56:09.790Z,1009.84
2017-10-29T09:57:10.067Z,1009.86
2017-10-29T09:58:09.849Z,1009.78
2017-10-29T09:59:09.905Z,1009.82
2017-10-29T10:00:09.922Z,1009.83
2017-10-29T10:01:09.944Z,1009.83
2017-10-29T10:02:09.994Z,1009.84
2017-10-29T10:03:10.326Z,1009.84
2017-10-29T10:04:10.050Z,1009.91
2017-10-29T10:05:10.063Z,1009.88
2017-10-29T10:06:10.113Z,1009.84
2017-10-29T10:07:10.142Z,1009.88
2017-10-29T10:08:10.163Z,1010.01
2017-10-29T10:09:10.469Z,1009.97
2017-10-29T10:10:10.234Z,1009.95
2017-10-29T10:11:10.267Z,1010.05
2017-10-29T10:12:10.283Z,1009.98
2017-10-29T10:13:10.335Z,1010.02
2017-10-29T10:14:10.358Z,1010.07
2017-10-29T10:15:10.691Z,1010.15
2017-10-29T10:16:10.403Z,1010.11
2017-10-29T10:17:10.433Z,1010.05
2017-10-29T10:18:10.499Z,1010.05
2017-10-29T10:19:10.552Z,1010.01
2017-10-29T10:20:10.525Z,1009.96
2017-10-29T10:21:10.657Z,1010.00
2017-10-29T10:22:10.884Z,1010.02
2017-10-29T10:23:10.636Z,1010.08
2017-10-29T10:24:10.667Z,1010.14
2017-10-29T10:25:10.733Z,1010.09
2017-10-29T10:26:10.714Z,1010.09
2017-10-29T10:27:10.757Z,1010.11
2017-10-29T10:28:10.773Z,1010.19
2017-10-29T10:29:11.104Z,1010.22
2017-10-29T10:30:10.854Z,1010.18
2017-10-29T10:31:10.865Z,1010.17
2017-10-29T10:32:10.894Z,1010.15
2017-10-29T10:33:10.929Z,1010.13
2017-10-29T10:34:10.957Z,1010.20
2017-10-29T10:35:11.018Z,1010.13
2017-10-29T10:36:11.317Z,1010.13
2017-10-29T10:37:11.065Z,1010.27
2017-10-29T10:38:11.096Z,1010.27
2017-10-29T10:39:11.109Z,1010.27
2017-10-29T10:40:11.190Z,1010.27
2017-10-29T10:41:11.172Z,1010.24
2017-10-29T10:42:11.204Z,1010.21
2017-10-29T10:43:11.512Z,1010.24
2017-10-29T10:44:11.282Z,1010.30
2017-10-29T10:45:11.299Z,1010.44
2017-10-29T10:46:11.438Z,1010.37
2017-10-29T10:47:11.362Z,1010.48
2017-10-29T10:48:11.406Z,1010.40
2017-10-29T10:49:11.430Z,1010.35
2017-10-29T10:50:11.719Z,1010.36
2017-10-29T10:51:11.508Z,1010.38
2017-10-29T10:52:11.536Z,1010.66
2017-10-29T10:53:11.570Z,1010.36
2017-10-29T10:54:11.646Z,1010.44
2017-10-29T10:55:11.605Z,1010.40
2017-10-29T10:56:11.644Z,1010.52
2017-10-29T10:57:11.989Z,1010.55
2017-10-29T10:58:11.716Z,1010.70
2017-10-29T10:59:11.762Z,1010.61
2017-10-29T11:00:12.124Z,1010.59
2017-10-29T11:01:11.942Z,1010.63
2017-10-29T11:02:11.830Z,1010.61
2017-10-29T11:03:11.854Z,1010.65
2017-10-29T11:04:12.162Z,1010.62
2017-10-29T11:05:11.970Z,1010.66
2017-10-29T11:06:11.955Z,1010.62
2017-10-29T11:07:11.982Z,1010.69
2017-10-29T11:08:12.700Z,1010.62
2017-10-29T11:09:12.056Z,1010.64
2017-10-29T11:10:12.073Z,1010.74
2017-10-29T11:11:12.672Z,1010.70
2017-10-29T11:12:12.144Z,1010.66
2017-10-29T11:13:12.180Z,1010.66
2017-10-29T11:14:12.208Z,1010.60
2017-10-29T11:15:13.251Z,1010.62
2017-10-29T11:16:12.856Z,1010.60
2017-10-29T11:17:12.310Z,1010.62
2017-10-29T11:18:12.933Z,1010.67
2017-10-29T11:19:12.371Z,1010.65
2017-10-29T11:20:12.406Z,1010.72
2017-10-29T11:21:12.784Z,1010.64
2017-10-29T11:22:12.463Z,1010.63
2017-10-29T11:23:12.474Z,1010.65
2017-10-29T11:24:12.574Z,1010.61
2017-10-29T11:25:12.876Z,1010.67
2017-10-29T11:26:12.568Z,1010.73
2017-10-29T11:27:12.600Z,1010.66
2017-10-29T11:28:12.658Z,1010.74
2017-10-29T11:29:12.689Z,1010.91
2017-10-29T11:30:12.712Z,1010.86
2017-10-29T11:31:12.754Z,1010.87
2017-10-29T11:32:13.179Z,1010.86
2017-10-29T11:33:12.788Z,1010.90
2017-10-29T11:34:12.820Z,1010.86
2017-10-29T11:35:12.853Z,1010.81
2017-10-29T11:36:12.883Z,1010.87
2017-10-29T11:37:12.917Z,1010.89
2017-10-29T11:38:12.953Z,1010.81
2017-10-29T11:39:13.285Z,1010.96
2017-10-29T11:40:13.044Z,1010.89
2017-10-29T11:41:13.040Z,1010.91
2017-10-29T11:42:13.100Z,1010.81
2017-10-29T11:43:13.119Z,1010.89
2017-10-29T11:44:13.481Z,1010.85
2017-10-29T11:45:13.487Z,1010.85
2017-10-29T11:46:13.217Z,1010.88
2017-10-29T11:47:13.228Z,1010.89
2017-10-29T11:48:13.274Z,1010.90
2017-10-29T11:49:13.312Z,1010.86
2017-10-29T11:50:13.373Z,1011.11
2017-10-29T11:51:13.632Z,1011.01
2017-10-29T11:52:13.392Z,1011.06
2017-10-29T11:53:13.429Z,1011.07
2017-10-29T11:54:13.444Z,1011.03
2017-10-29T11:55:13.498Z,1011.05
2017-10-29T11:56:13.506Z,1011.05
2017-10-29T11:57:13.816Z,1011.04
2017-10-29T11:58:13.575Z,1011.03
2017-10-29T11:59:13.623Z,1011.10
2017-10-29T12:00:13.633Z,1011.00
2017-10-29T12:01:13.779Z,1011.05
2017-10-29T12:02:13.712Z,1011.03
2017-10-29T12:03:13.976Z,1011.04
2017-10-29T12:04:13.779Z,1011.08
2017-10-29T12:05:13.786Z,1011.10
2017-10-29T12:06:13.836Z,1011.02